Stolt Courage — D5BG8 — position and weather

sailwx.info

Track history (hours):
 
Tides and Currents Weather Stations Pressure Air Temp Water Temp Dewpoint Dewpoint Depression Visibility Wind Speed Wind Dir Waves Ship Positions

Stolt Courage

Last reported at 2017-Oct-09 02:36 UTC. Time now 2017-Oct-20 03:36 UTC.
Position N 27°32' W 015°15'.
Warning: this ship's position is 11 days out of date.

Length 174 m; draft 8.1 m.

Type: Tanker. MMSI: 636015517.

Date/timePositionNaut miles runAvg speedWind from/ knotsBaromVisibWave heightAir tempDewpointWater temp
2017-Oct-09 02:36N 27°32' W 015°15'614.9
2017-Oct-09 02:14N 27°37' W 015°13'414.6
2017-Oct-09 01:59N 27°41' W 015°12'714.7
2017-Oct-09 01:31N 27°47' W 015°09'815.1
2017-Oct-09 01:01N 27°55' W 015°06'815.3
2017-Oct-09 00:31N 28°02' W 015°03'815.0
2017-Oct-09 00:01N 28°09' W 015°00'815.0
2017-Oct-08 23:31N 28°16' W 014°57'815.2
2017-Oct-08 23:01N 28°23' W 014°54'815.5
2017-Oct-08 22:30N 28°30' W 014°51'815.4
2017-Oct-08 22:00N 28°37' W 014°47'52114.8
2017-Oct-07 10:41N 36°43' W 011°02'514.9
2017-Oct-07 10:19N 36°48' W 010°60'715.2
2017-Oct-07 09:50N 36°54' W 010°56'515.3
2017-Oct-07 09:30N 36°59' W 010°54'815.4
2017-Oct-07 09:00N 37°06' W 010°51'815.6
2017-Oct-07 08:30N 37°14' W 010°47'815.3
2017-Oct-07 08:00N 37°21' W 010°44'815.6
2017-Oct-07 07:30N 37°28' W 010°40'815.6
2017-Oct-07 07:00N 37°36' W 010°37'714.9
2017-Oct-07 06:30N 37°42' W 010°34'815.0
2017-Oct-07 06:00N 37°49' W 010°29'715.0
2017-Oct-07 05:30N 37°56' W 010°26'715.0
2017-Oct-07 05:00N 38°03' W 010°23'815.6
2017-Oct-07 04:30N 38°10' W 010°19'815.4
2017-Oct-07 04:00N 38°18' W 010°16'714.7
2017-Oct-07 03:30N 38°25' W 010°13'815.6
2017-Oct-07 03:00N 38°32' W 010°12'815.3
2017-Oct-07 02:30N 38°40' W 010°13'714.7
2017-Oct-07 02:00N 38°47' W 010°13'714.3
2017-Oct-07 01:30N 38°54' W 010°13'714.0
2017-Oct-07 01:01N 39°01' W 010°12'815.1
2017-Oct-07 00:31N 39°09' W 010°12'815.0
2017-Oct-07 00:00N 39°17' W 010°12'714.8
2017-Oct-06 23:30N 39°24' W 010°12'815.3
2017-Oct-06 23:00N 39°32' W 010°12'815.1
2017-Oct-06 22:30N 39°39' W 010°12'714.7
2017-Oct-06 22:00N 39°46' W 010°12'714.8
2017-Oct-06 21:30N 39°54' W 010°12'714.7
2017-Oct-06 21:00N 40°01' W 010°13'714.9
2017-Oct-06 20:30N 40°09' W 010°14'815.0
2017-Oct-06 20:00N 40°16' W 010°14'815.3
2017-Oct-06 19:30N 40°24' W 010°13'714.9
2017-Oct-06 19:01N 40°31' W 010°12'714.7
2017-Oct-06 18:31N 40°38' W 010°12'714.8
2017-Oct-06 18:00N 40°46' W 010°12'815.1
2017-Oct-06 17:30N 40°53' W 010°12'714.8
2017-Oct-06 17:00N 41°01' W 010°12'714.7
2017-Oct-06 16:30N 41°08' W 010°12'714.9
2017-Oct-06 16:00N 41°16' W 010°12'815.5
2017-Oct-06 15:29N 41°24' W 010°12'715.3
2017-Oct-06 15:00N 41°31' W 010°12'815.2
2017-Oct-06 14:29N 41°39' W 010°12'714.6
2017-Oct-06 14:00N 41°46' W 010°12'48113.7
2017-Oct-05 03:02N 49°03' W 005°26'012.6
2017-Oct-05 02:59N 49°03' W 005°25'612.7
2017-Oct-05 02:30N 49°06' W 005°17'712.7
2017-Oct-05 01:57N 49°10' W 005°08'612.8
2017-Oct-05 01:30N 49°12' W 005°00'813.5
2017-Oct-05 00:57N 49°15' W 004°50'713.8
2017-Oct-05 00:28N 49°19' W 004°41'714.4
2017-Oct-05 00:00N 49°23' W 004°33'714.9
2017-Oct-04 23:30N 49°27' W 004°23'1115.3
2017-Oct-04 22:47N 49°33' W 004°09'415.5
2017-Oct-04 22:30N 49°35' W 004°03'815.3
2017-Oct-04 21:58N 49°39' W 003°53'715.0
2017-Oct-04 21:30N 49°43' W 003°43'914.7
2017-Oct-04 20:53N 49°48' W 003°31'514.1
2017-Oct-04 20:30N 49°50' W 003°24'713.5
2017-Oct-04 20:00N 49°54' W 003°15'712.9
2017-Oct-04 19:30N 49°57' W 003°07'612.3
2017-Oct-04 19:01N 49°59' W 002°57'611.9
2017-Oct-04 18:30N 50°00' W 002°49'611.7
2017-Oct-04 18:01N 50°02' W 002°40'611.6
2017-Oct-04 17:29N 50°04' W 002°31'2212.7
2017-Oct-04 15:44N 50°10' W 001°58'314.4
2017-Oct-04 15:30N 50°11' W 001°52'815.1
2017-Oct-04 14:57N 50°13' W 001°40'1016.0
2017-Oct-04 14:21N 50°15' W 001°26'3816.5
2017-Oct-04 12:05N 50°26' W 000°29'215.7
2017-Oct-04 11:56N 50°26' W 000°25'615.4
2017-Oct-04 11:30N 50°28' W 000°16'714.8
2017-Oct-04 11:01N 50°30' W 000°04'714.5
2017-Oct-04 10:31N 50°32' E 000°07'714.1
2017-Oct-04 10:00N 50°34' E 000°17'713.7
2017-Oct-04 09:30N 50°36' E 000°28'713.1
2017-Oct-04 09:00N 50°38' E 000°37'713.4
2017-Oct-04 08:30N 50°42' E 000°46'713.5
2017-Oct-04 08:00N 50°47' E 000°54'1114.3
2017-Oct-04 07:15N 50°53' E 001°07'415.3
2017-Oct-04 07:00N 50°56' E 001°12'816.5
2017-Oct-04 06:30N 51°01' E 001°22'917.5
2017-Oct-04 06:00N 51°06' E 001°33'917.4
2017-Oct-04 05:30N 51°12' E 001°43'816.6
2017-Oct-04 05:00N 51°19' E 001°51'815.5
2017-Oct-04 04:30N 51°24' E 001°60'714.5
2017-Oct-04 04:00N 51°22' E 002°11'714.3
2017-Oct-04 03:30N 51°21' E 002°22'714.6
2017-Oct-04 03:00N 51°23' E 002°34'712.6
2017-Oct-04 02:26N 51°24' E 002°45'511.2
2017-Oct-04 01:58N 51°25' E 002°53'612.9
2017-Oct-04 01:30N 51°25' E 003°03'612.3
2017-Oct-04 01:00N 51°25' E 003°13'612.3
2017-Oct-04 00:30N 51°25' E 003°23'612.1
2017-Oct-04 00:00N 51°25' E 003°32'3 6.1
2017-Oct-03 23:30N 51°26' E 003°37'4 7.5
2017-Oct-03 23:00N 51°25' E 003°43'4 8.7
2017-Oct-03 22:30N 51°22' E 003°47'510.1
2017-Oct-03 22:00N 51°22' E 003°55'510.4
2017-Oct-03 21:30N 51°26' E 003°59'5 9.6
2017-Oct-03 21:00N 51°22' E 004°04'510.0
2017-Oct-03 20:30N 51°24' E 004°11'5 9.6
2017-Oct-03 20:00N 51°20' E 004°16'4 7.3
2017-Oct-03 19:30N 51°17' E 004°15'0 0.1
2017-Oct-03 19:00N 51°17' E 004°15'0 0.7
2017-Oct-03 18:30N 51°16' E 004°14'1 1.2
2017-Oct-03 17:52N 51°17' E 004°14'0 0.0
2017-Oct-03 17:19N 51°17' E 004°14'0 0.0
2017-Oct-03 16:58N 51°17' E 004°14'0 0.0
2017-Oct-03 16:28N 51°17' E 004°14'0 0.0
2017-Oct-03 15:58N 51°17' E 004°14'0 0.0
2017-Oct-03 14:43N 51°17' E 004°14'0 0.0
2017-Oct-03 13:04N 51°17' E 004°14'0 0.0
2017-Oct-03 12:55N 51°17' E 004°14'0 0.0
2017-Oct-03 11:58N 51°17' E 004°14'0 0.0
2017-Oct-03 11:28N 51°17' E 004°14'0 0.0
2017-Oct-03 10:55N 51°17' E 004°14'0 0.0
2017-Oct-03 09:55N 51°17' E 004°14'0 0.0
2017-Oct-03 09:22N 51°17' E 004°14'0 0.0
2017-Oct-03 08:37N 51°17' E 004°14'0 0.0
2017-Oct-03 08:28N 51°17' E 004°14'0 0.0
2017-Oct-03 07:22N 51°17' E 004°14'0 0.0
2017-Oct-03 06:46N 51°17' E 004°14'0 0.0
2017-Oct-03 06:22N 51°17' E 004°14'0 0.0
2017-Oct-03 05:58N 51°17' E 004°14'0 0.0
2017-Oct-03 05:25N 51°17' E 004°14'0 0.0
2017-Oct-03 04:58N 51°17' E 004°14'0 0.0
2017-Oct-03 04:28N 51°17' E 004°14'0 0.0
2017-Oct-03 03:58N 51°17' E 004°14'0 0.0
2017-Oct-03 03:13N 51°17' E 004°14'0 0.0
2017-Oct-03 02:01N 51°17' E 004°14'0 0.0
2017-Oct-03 01:58N 51°17' E 004°14'0 0.0
2017-Oct-03 01:28N 51°17' E 004°14'0 0.0
2017-Oct-03 00:49N 51°17' E 004°14'0 0.0
2017-Oct-03 00:13N 51°17' E 004°14'0 0.0
2017-Oct-02 23:52N 51°17' E 004°14'0 0.0
2017-Oct-02 23:25N 51°17' E 004°14'0 0.0
2017-Oct-02 22:58N 51°17' E 004°14'0 0.0
2017-Oct-02 22:22N 51°17' E 004°14'0 0.0
2017-Oct-02 21:49N 51°17' E 004°14'0 0.0
2017-Oct-02 21:10N 51°17' E 004°14'0 0.0
2017-Oct-02 20:46N 51°17' E 004°14'0 0.0
2017-Oct-02 20:28N 51°17' E 004°14'0 0.0
2017-Oct-02 19:58N 51°17' E 004°14'0 0.0
2017-Oct-02 19:25N 51°17' E 004°14'0 0.0
2017-Oct-02 18:58N 51°17' E 004°14'0 0.0
2017-Oct-02 18:25N 51°17' E 004°14'0 0.0
2017-Oct-02 17:55N 51°17' E 004°14'0 0.0
2017-Oct-02 17:25N 51°17' E 004°14'0 0.0
2017-Oct-02 16:52N 51°17' E 004°14'0 0.0
2017-Oct-02 16:28N 51°17' E 004°14'0 0.0
2017-Oct-02 15:52N 51°17' E 004°14'0 0.0
2017-Oct-02 15:16N 51°17' E 004°14'0 0.0
2017-Oct-02 14:55N 51°17' E 004°14'0 0.0
2017-Oct-02 13:07N 51°17' E 004°14'0 0.0
2017-Oct-02 12:52N 51°17' E 004°14'0 0.0
2017-Oct-02 11:43N 51°17' E 004°14'0 0.0
2017-Oct-02 11:16N 51°17' E 004°14'0 0.0
2017-Oct-02 10:04N 51°17' E 004°14'0 0.0
2017-Oct-02 09:49N 51°17' E 004°14'0 0.0
2017-Oct-02 09:25N 51°17' E 004°14'0 0.0
2017-Oct-02 08:55N 51°17' E 004°14'0 0.0
2017-Oct-02 08:19N 51°17' E 004°14'0 0.0
2017-Oct-02 07:52N 51°17' E 004°14'0 0.1
2017-Oct-02 07:30N 51°17' E 004°14'1 1.5
2017-Oct-02 07:00N 51°17' E 004°15'0 0.0
2017-Oct-02 06:30N 51°17' E 004°15'0 0.9
2017-Oct-02 06:00N 51°17' E 004°15'3 5.1
2017-Oct-02 05:30N 51°17' E 004°19'1 1.4
2017-Oct-02 05:01N 51°17' E 004°20'0 0.0
2017-Oct-02 04:31N 51°17' E 004°20'2 3.2
2017-Oct-02 04:00N 51°15' E 004°22'0 0.6
2017-Oct-02 03:28N 51°15' E 004°22'0 0.0
2017-Oct-02 02:58N 51°15' E 004°22'0 0.0
2017-Oct-02 02:28N 51°15' E 004°22'0 0.0
2017-Oct-02 01:58N 51°15' E 004°22'0 0.0
2017-Oct-02 01:28N 51°15' E 004°22'0 0.0
2017-Oct-02 00:58N 51°15' E 004°22'0 0.0
2017-Oct-02 00:28N 51°15' E 004°22'0 0.0
2017-Oct-01 23:58N 51°15' E 004°22'0 0.0
2017-Oct-01 23:28N 51°15' E 004°22'0 0.0
2017-Oct-01 22:58N 51°15' E 004°22'0 0.0
2017-Oct-01 22:28N 51°15' E 004°22'0 0.0
2017-Oct-01 21:58N 51°15' E 004°22'0 0.0
2017-Oct-01 21:28N 51°15' E 004°22'0 0.0
2017-Oct-01 20:58N 51°15' E 004°22'0 0.0
2017-Oct-01 20:28N 51°15' E 004°22'0 0.0
2017-Oct-01 19:58N 51°15' E 004°22'0 0.0
2017-Oct-01 19:28N 51°15' E 004°22'0 0.0
2017-Oct-01 18:58N 51°15' E 004°22'0 0.0
2017-Oct-01 18:28N 51°15' E 004°22'0 0.0
2017-Oct-01 17:58N 51°15' E 004°22'0 0.0
2017-Oct-01 17:28N 51°15' E 004°22'0 0.0
2017-Oct-01 16:58N 51°15' E 004°22'0 0.0
2017-Oct-01 16:28N 51°15' E 004°22'0 0.0
2017-Oct-01 15:58N 51°15' E 004°22'0 0.0
2017-Oct-01 15:28N 51°15' E 004°22'0 0.0
2017-Oct-01 14:58N 51°15' E 004°22'0 0.0
2017-Oct-01 14:28N 51°15' E 004°22'0 0.0
2017-Oct-01 13:58N 51°15' E 004°22'0 0.0
2017-Oct-01 13:28N 51°15' E 004°22'0 0.0
2017-Oct-01 12:58N 51°15' E 004°22'0 0.0
2017-Oct-01 12:25N 51°15' E 004°22'0 0.0
2017-Oct-01 11:58N 51°15' E 004°22'0 0.0
2017-Oct-01 11:28N 51°15' E 004°22'0 0.0
2017-Oct-01 10:58N 51°15' E 004°22'0 0.0
2017-Oct-01 10:28N 51°15' E 004°22'0 0.0
2017-Oct-01 09:58N 51°15' E 004°22'0 0.0
2017-Oct-01 09:25N 51°15' E 004°22'0 0.0
2017-Oct-01 08:58N 51°15' E 004°22'0 0.0
2017-Oct-01 08:25N 51°15' E 004°22'0 0.0
2017-Oct-01 07:58N 51°15' E 004°22'0 0.0
2017-Oct-01 07:25N 51°15' E 004°22'0 0.0
2017-Oct-01 06:58N 51°15' E 004°22'0 0.0
2017-Oct-01 06:28N 51°15' E 004°22'0 0.0
2017-Oct-01 05:58N 51°15' E 004°22'0 0.0
2017-Oct-01 05:28N 51°15' E 004°22'0 0.0
2017-Oct-01 04:55N 51°15' E 004°22'0 0.0
2017-Oct-01 04:28N 51°15' E 004°22'0 0.0
2017-Oct-01 03:58N 51°15' E 004°22'0 0.0
2017-Oct-01 03:28N 51°15' E 004°22'0 0.0
2017-Oct-01 02:58N 51°15' E 004°22'0 0.0
2017-Sep-30 01:55N 51°15' E 004°22'0 0.0
2017-Sep-30 01:28N 51°15' E 004°22'0 0.0
2017-Sep-30 00:52N 51°15' E 004°22'0 0.0
2017-Sep-30 00:22N 51°15' E 004°22'0 0.0
2017-Sep-29 23:58N 51°15' E 004°22'0 0.0
2017-Sep-29 23:28N 51°15' E 004°22'0 0.0
2017-Sep-29 22:58N 51°15' E 004°22'0 0.0
2017-Sep-29 22:28N 51°15' E 004°22'0 0.0
2017-Sep-29 21:58N 51°15' E 004°22'0 0.0
2017-Sep-29 21:25N 51°15' E 004°22'0 0.0
2017-Sep-29 20:52N 51°15' E 004°22'0 0.0
2017-Sep-29 20:28N 51°15' E 004°22'0 0.0
2017-Sep-29 19:58N 51°15' E 004°22'0 0.0
2017-Sep-29 19:28N 51°15' E 004°22'0 0.0
2017-Sep-29 18:58N 51°15' E 004°22'0 0.0
2017-Sep-29 18:28N 51°15' E 004°22'0 0.0
2017-Sep-29 17:58N 51°15' E 004°22'0 0.0
2017-Sep-29 17:22N 51°15' E 004°22'0 0.0
2017-Sep-29 16:49N 51°15' E 004°22'0 0.0
2017-Sep-29 16:28N 51°15' E 004°22'0 0.0
2017-Sep-29 15:55N 51°15' E 004°22'0 0.0
2017-Sep-29 15:28N 51°15' E 004°22'0 0.0
2017-Sep-29 14:58N 51°15' E 004°22'0 0.0
2017-Sep-29 14:28N 51°15' E 004°22'0 0.0
2017-Sep-29 13:58N 51°15' E 004°22'0 0.0
2017-Sep-29 13:22N 51°15' E 004°22'0 0.0
2017-Sep-29 12:58N 51°15' E 004°22'0 0.0
2017-Sep-29 12:25N 51°15' E 004°22'0 0.0
2017-Sep-29 11:58N 51°15' E 004°22'1 1.6
2017-Sep-29 11:30N 51°16' E 004°21'3 5.0
2017-Sep-29 11:00N 51°18' E 004°19'3 5.6
2017-Sep-29 10:30N 51°21' E 004°18'  
Track history (hours):
 
Tides and Currents Weather Stations Pressure Air Temp Water Temp Dewpoint Dewpoint Depression Visibility Wind Speed Wind Dir Waves Ship Positions

Stolt Courage

Last reported at 2017-Oct-09 02:36 UTC. Time now 2017-Oct-20 03:36 UTC.
Position N 27°32' W 015°15'.
Warning: this ship's position is 11 days out of date.

Length 174 m; draft 8.1 m.

Type: Tanker. MMSI: 636015517.

Date/timePositionNaut miles runAvg speedWind from/ knotsBaromVisibWave heightAir tempDewpointWater temp
2017-Oct-09 02:36N 27°32' W 015°15'614.9
2017-Oct-09 02:14N 27°37' W 015°13'414.6
2017-Oct-09 01:59N 27°41' W 015°12'714.7
2017-Oct-09 01:31N 27°47' W 015°09'815.1
2017-Oct-09 01:01N 27°55' W 015°06'815.3
2017-Oct-09 00:31N 28°02' W 015°03'815.0
2017-Oct-09 00:01N 28°09' W 015°00'815.0
2017-Oct-08 23:31N 28°16' W 014°57'815.2
2017-Oct-08 23:01N 28°23' W 014°54'815.5
2017-Oct-08 22:30N 28°30' W 014°51'815.4
2017-Oct-08 22:00N 28°37' W 014°47'52114.8
2017-Oct-07 10:41N 36°43' W 011°02'514.9
2017-Oct-07 10:19N 36°48' W 010°60'715.2
2017-Oct-07 09:50N 36°54' W 010°56'515.3
2017-Oct-07 09:30N 36°59' W 010°54'815.4
2017-Oct-07 09:00N 37°06' W 010°51'815.6
2017-Oct-07 08:30N 37°14' W 010°47'815.3
2017-Oct-07 08:00N 37°21' W 010°44'815.6
2017-Oct-07 07:30N 37°28' W 010°40'815.6
2017-Oct-07 07:00N 37°36' W 010°37'714.9
2017-Oct-07 06:30N 37°42' W 010°34'815.0
2017-Oct-07 06:00N 37°49' W 010°29'715.0
2017-Oct-07 05:30N 37°56' W 010°26'715.0
2017-Oct-07 05:00N 38°03' W 010°23'815.6
2017-Oct-07 04:30N 38°10' W 010°19'815.4
2017-Oct-07 04:00N 38°18' W 010°16'714.7
2017-Oct-07 03:30N 38°25' W 010°13'815.6
2017-Oct-07 03:00N 38°32' W 010°12'815.3
2017-Oct-07 02:30N 38°40' W 010°13'714.7
2017-Oct-07 02:00N 38°47' W 010°13'714.3
2017-Oct-07 01:30N 38°54' W 010°13'714.0
2017-Oct-07 01:01N 39°01' W 010°12'815.1
2017-Oct-07 00:31N 39°09' W 010°12'815.0
2017-Oct-07 00:00N 39°17' W 010°12'714.8
2017-Oct-06 23:30N 39°24' W 010°12'815.3
2017-Oct-06 23:00N 39°32' W 010°12'815.1
2017-Oct-06 22:30N 39°39' W 010°12'714.7
2017-Oct-06 22:00N 39°46' W 010°12'714.8
2017-Oct-06 21:30N 39°54' W 010°12'714.7
2017-Oct-06 21:00N 40°01' W 010°13'714.9
2017-Oct-06 20:30N 40°09' W 010°14'815.0
2017-Oct-06 20:00N 40°16' W 010°14'815.3
2017-Oct-06 19:30N 40°24' W 010°13'714.9
2017-Oct-06 19:01N 40°31' W 010°12'714.7
2017-Oct-06 18:31N 40°38' W 010°12'714.8
2017-Oct-06 18:00N 40°46' W 010°12'815.1
2017-Oct-06 17:30N 40°53' W 010°12'714.8
2017-Oct-06 17:00N 41°01' W 010°12'714.7
2017-Oct-06 16:30N 41°08' W 010°12'714.9
2017-Oct-06 16:00N 41°16' W 010°12'815.5
2017-Oct-06 15:29N 41°24' W 010°12'715.3
2017-Oct-06 15:00N 41°31' W 010°12'815.2
2017-Oct-06 14:29N 41°39' W 010°12'714.6
2017-Oct-06 14:00N 41°46' W 010°12'48113.7
2017-Oct-05 03:02N 49°03' W 005°26'012.6
2017-Oct-05 02:59N 49°03' W 005°25'612.7
2017-Oct-05 02:30N 49°06' W 005°17'712.7
2017-Oct-05 01:57N 49°10' W 005°08'612.8
2017-Oct-05 01:30N 49°12' W 005°00'813.5
2017-Oct-05 00:57N 49°15' W 004°50'713.8
2017-Oct-05 00:28N 49°19' W 004°41'714.4
2017-Oct-05 00:00N 49°23' W 004°33'714.9
2017-Oct-04 23:30N 49°27' W 004°23'1115.3
2017-Oct-04 22:47N 49°33' W 004°09'415.5
2017-Oct-04 22:30N 49°35' W 004°03'815.3
2017-Oct-04 21:58N 49°39' W 003°53'715.0
2017-Oct-04 21:30N 49°43' W 003°43'914.7
2017-Oct-04 20:53N 49°48' W 003°31'514.1
2017-Oct-04 20:30N 49°50' W 003°24'713.5
2017-Oct-04 20:00N 49°54' W 003°15'712.9
2017-Oct-04 19:30N 49°57' W 003°07'612.3
2017-Oct-04 19:01N 49°59' W 002°57'611.9
2017-Oct-04 18:30N 50°00' W 002°49'611.7
2017-Oct-04 18:01N 50°02' W 002°40'611.6
2017-Oct-04 17:29N 50°04' W 002°31'2212.7
2017-Oct-04 15:44N 50°10' W 001°58'314.4
2017-Oct-04 15:30N 50°11' W 001°52'815.1
2017-Oct-04 14:57N 50°13' W 001°40'1016.0
2017-Oct-04 14:21N 50°15' W 001°26'3816.5
2017-Oct-04 12:05N 50°26' W 000°29'215.7
2017-Oct-04 11:56N 50°26' W 000°25'615.4
2017-Oct-04 11:30N 50°28' W 000°16'714.8
2017-Oct-04 11:01N 50°30' W 000°04'714.5
2017-Oct-04 10:31N 50°32' E 000°07'714.1
2017-Oct-04 10:00N 50°34' E 000°17'713.7
2017-Oct-04 09:30N 50°36' E 000°28'713.1
2017-Oct-04 09:00N 50°38' E 000°37'713.4
2017-Oct-04 08:30N 50°42' E 000°46'713.5
2017-Oct-04 08:00N 50°47' E 000°54'1114.3
2017-Oct-04 07:15N 50°53' E 001°07'415.3
2017-Oct-04 07:00N 50°56' E 001°12'816.5
2017-Oct-04 06:30N 51°01' E 001°22'917.5
2017-Oct-04 06:00N 51°06' E 001°33'917.4
2017-Oct-04 05:30N 51°12' E 001°43'816.6
2017-Oct-04 05:00N 51°19' E 001°51'815.5
2017-Oct-04 04:30N 51°24' E 001°60'714.5
2017-Oct-04 04:00N 51°22' E 002°11'714.3
2017-Oct-04 03:30N 51°21' E 002°22'714.6
2017-Oct-04 03:00N 51°23' E 002°34'712.6
2017-Oct-04 02:26N 51°24' E 002°45'511.2
2017-Oct-04 01:58N 51°25' E 002°53'612.9
2017-Oct-04 01:30N 51°25' E 003°03'612.3
2017-Oct-04 01:00N 51°25' E 003°13'612.3
2017-Oct-04 00:30N 51°25' E 003°23'612.1
2017-Oct-04 00:00N 51°25' E 003°32'3 6.1
2017-Oct-03 23:30N 51°26' E 003°37'4 7.5
2017-Oct-03 23:00N 51°25' E 003°43'4 8.7
2017-Oct-03 22:30N 51°22' E 003°47'510.1
2017-Oct-03 22:00N 51°22' E 003°55'510.4
2017-Oct-03 21:30N 51°26' E 003°59'5 9.6
2017-Oct-03 21:00N 51°22' E 004°04'510.0
2017-Oct-03 20:30N 51°24' E 004°11'5 9.6
2017-Oct-03 20:00N 51°20' E 004°16'4 7.3
2017-Oct-03 19:30N 51°17' E 004°15'0 0.1
2017-Oct-03 19:00N 51°17' E 004°15'0 0.7
2017-Oct-03 18:30N 51°16' E 004°14'1 1.2
2017-Oct-03 17:52N 51°17' E 004°14'0 0.0
2017-Oct-03 17:19N 51°17' E 004°14'0 0.0
2017-Oct-03 16:58N 51°17' E 004°14'0 0.0
2017-Oct-03 16:28N 51°17' E 004°14'0 0.0
2017-Oct-03 15:58N 51°17' E 004°14'0 0.0
2017-Oct-03 14:43N 51°17' E 004°14'0 0.0
2017-Oct-03 13:04N 51°17' E 004°14'0 0.0
2017-Oct-03 12:55N 51°17' E 004°14'0 0.0
2017-Oct-03 11:58N 51°17' E 004°14'0 0.0
2017-Oct-03 11:28N 51°17' E 004°14'0 0.0
2017-Oct-03 10:55N 51°17' E 004°14'0 0.0
2017-Oct-03 09:55N 51°17' E 004°14'0 0.0
2017-Oct-03 09:22N 51°17' E 004°14'0 0.0
2017-Oct-03 08:37N 51°17' E 004°14'0 0.0
2017-Oct-03 08:28N 51°17' E 004°14'0 0.0
2017-Oct-03 07:22N 51°17' E 004°14'0 0.0
2017-Oct-03 06:46N 51°17' E 004°14'0 0.0
2017-Oct-03 06:22N 51°17' E 004°14'0 0.0
2017-Oct-03 05:58N 51°17' E 004°14'0 0.0
2017-Oct-03 05:25N 51°17' E 004°14'0 0.0
2017-Oct-03 04:58N 51°17' E 004°14'0 0.0
2017-Oct-03 04:28N 51°17' E 004°14'0 0.0
2017-Oct-03 03:58N 51°17' E 004°14'0 0.0
2017-Oct-03 03:13N 51°17' E 004°14'0 0.0
2017-Oct-03 02:01N 51°17' E 004°14'0 0.0
2017-Oct-03 01:58N 51°17' E 004°14'0 0.0
2017-Oct-03 01:28N 51°17' E 004°14'0 0.0
2017-Oct-03 00:49N 51°17' E 004°14'0 0.0
2017-Oct-03 00:13N 51°17' E 004°14'0 0.0
2017-Oct-02 23:52N 51°17' E 004°14'0 0.0
2017-Oct-02 23:25N 51°17' E 004°14'0 0.0
2017-Oct-02 22:58N 51°17' E 004°14'0 0.0
2017-Oct-02 22:22N 51°17' E 004°14'0 0.0
2017-Oct-02 21:49N 51°17' E 004°14'0 0.0
2017-Oct-02 21:10N 51°17' E 004°14'0 0.0
2017-Oct-02 20:46N 51°17' E 004°14'0 0.0
2017-Oct-02 20:28N 51°17' E 004°14'0 0.0
2017-Oct-02 19:58N 51°17' E 004°14'0 0.0
2017-Oct-02 19:25N 51°17' E 004°14'0 0.0
2017-Oct-02 18:58N 51°17' E 004°14'0 0.0
2017-Oct-02 18:25N 51°17' E 004°14'0 0.0
2017-Oct-02 17:55N 51°17' E 004°14'0 0.0
2017-Oct-02 17:25N 51°17' E 004°14'0 0.0
2017-Oct-02 16:52N 51°17' E 004°14'0 0.0
2017-Oct-02 16:28N 51°17' E 004°14'0 0.0
2017-Oct-02 15:52N 51°17' E 004°14'0 0.0
2017-Oct-02 15:16N 51°17' E 004°14'0 0.0
2017-Oct-02 14:55N 51°17' E 004°14'0 0.0
2017-Oct-02 13:07N 51°17' E 004°14'0 0.0
2017-Oct-02 12:52N 51°17' E 004°14'0 0.0
2017-Oct-02 11:43N 51°17' E 004°14'0 0.0
2017-Oct-02 11:16N 51°17' E 004°14'0 0.0
2017-Oct-02 10:04N 51°17' E 004°14'0 0.0
2017-Oct-02 09:49N 51°17' E 004°14'0 0.0
2017-Oct-02 09:25N 51°17' E 004°14'0 0.0
2017-Oct-02 08:55N 51°17' E 004°14'0 0.0
2017-Oct-02 08:19N 51°17' E 004°14'0 0.0
2017-Oct-02 07:52N 51°17' E 004°14'0 0.1
2017-Oct-02 07:30N 51°17' E 004°14'1 1.5
2017-Oct-02 07:00N 51°17' E 004°15'0 0.0
2017-Oct-02 06:30N 51°17' E 004°15'0 0.9
2017-Oct-02 06:00N 51°17' E 004°15'3 5.1
2017-Oct-02 05:30N 51°17' E 004°19'1 1.4
2017-Oct-02 05:01N 51°17' E 004°20'0 0.0
2017-Oct-02 04:31N 51°17' E 004°20'2 3.2
2017-Oct-02 04:00N 51°15' E 004°22'0 0.6
2017-Oct-02 03:28N 51°15' E 004°22'0 0.0
2017-Oct-02 02:58N 51°15' E 004°22'0 0.0
2017-Oct-02 02:28N 51°15' E 004°22'0 0.0
2017-Oct-02 01:58N 51°15' E 004°22'0 0.0
2017-Oct-02 01:28N 51°15' E 004°22'0 0.0
2017-Oct-02 00:58N 51°15' E 004°22'0 0.0
2017-Oct-02 00:28N 51°15' E 004°22'0 0.0
2017-Oct-01 23:58N 51°15' E 004°22'0 0.0
2017-Oct-01 23:28N 51°15' E 004°22'0 0.0
2017-Oct-01 22:58N 51°15' E 004°22'0 0.0
2017-Oct-01 22:28N 51°15' E 004°22'0 0.0
2017-Oct-01 21:58N 51°15' E 004°22'0 0.0
2017-Oct-01 21:28N 51°15' E 004°22'0 0.0
2017-Oct-01 20:58N 51°15' E 004°22'0 0.0
2017-Oct-01 20:28N 51°15' E 004°22'0 0.0
2017-Oct-01 19:58N 51°15' E 004°22'0 0.0
2017-Oct-01 19:28N 51°15' E 004°22'0 0.0
2017-Oct-01 18:58N 51°15' E 004°22'0 0.0
2017-Oct-01 18:28N 51°15' E 004°22'0 0.0
2017-Oct-01 17:58N 51°15' E 004°22'0 0.0
2017-Oct-01 17:28N 51°15' E 004°22'0 0.0
2017-Oct-01 16:58N 51°15' E 004°22'0 0.0
2017-Oct-01 16:28N 51°15' E 004°22'0 0.0
2017-Oct-01 15:58N 51°15' E 004°22'0 0.0
2017-Oct-01 15:28N 51°15' E 004°22'0 0.0
2017-Oct-01 14:58N 51°15' E 004°22'0 0.0
2017-Oct-01 14:28N 51°15' E 004°22'0 0.0
2017-Oct-01 13:58N 51°15' E 004°22'0 0.0
2017-Oct-01 13:28N 51°15' E 004°22'0 0.0
2017-Oct-01 12:58N 51°15' E 004°22'0 0.0
2017-Oct-01 12:25N 51°15' E 004°22'0 0.0
2017-Oct-01 11:58N 51°15' E 004°22'0 0.0
2017-Oct-01 11:28N 51°15' E 004°22'0 0.0
2017-Oct-01 10:58N 51°15' E 004°22'0 0.0
2017-Oct-01 10:28N 51°15' E 004°22'0 0.0
2017-Oct-01 09:58N 51°15' E 004°22'0 0.0
2017-Oct-01 09:25N 51°15' E 004°22'0 0.0
2017-Oct-01 08:58N 51°15' E 004°22'0 0.0
2017-Oct-01 08:25N 51°15' E 004°22'0 0.0
2017-Oct-01 07:58N 51°15' E 004°22'0 0.0
2017-Oct-01 07:25N 51°15' E 004°22'0 0.0
2017-Oct-01 06:58N 51°15' E 004°22'0 0.0
2017-Oct-01 06:28N 51°15' E 004°22'0 0.0
2017-Oct-01 05:58N 51°15' E 004°22'0 0.0
2017-Oct-01 05:28N 51°15' E 004°22'0 0.0
2017-Oct-01 04:55N 51°15' E 004°22'0 0.0
2017-Oct-01 04:28N 51°15' E 004°22'0 0.0
2017-Oct-01 03:58N 51°15' E 004°22'0 0.0
2017-Oct-01 03:28N 51°15' E 004°22'0 0.0
2017-Oct-01 02:58N 51°15' E 004°22'0 0.0
2017-Sep-30 01:55N 51°15' E 004°22'0 0.0
2017-Sep-30 01:28N 51°15' E 004°22'0 0.0
2017-Sep-30 00:52N 51°15' E 004°22'0 0.0
2017-Sep-30 00:22N 51°15' E 004°22'0 0.0
2017-Sep-29 23:58N 51°15' E 004°22'0 0.0
2017-Sep-29 23:28N 51°15' E 004°22'0 0.0
2017-Sep-29 22:58N 51°15' E 004°22'0 0.0
2017-Sep-29 22:28N 51°15' E 004°22'0 0.0
2017-Sep-29 21:58N 51°15' E 004°22'0 0.0
2017-Sep-29 21:25N 51°15' E 004°22'0 0.0
2017-Sep-29 20:52N 51°15' E 004°22'0 0.0
2017-Sep-29 20:28N 51°15' E 004°22'0 0.0
2017-Sep-29 19:58N 51°15' E 004°22'0 0.0
2017-Sep-29 19:28N 51°15' E 004°22'0 0.0
2017-Sep-29 18:58N 51°15' E 004°22'0 0.0
2017-Sep-29 18:28N 51°15' E 004°22'0 0.0
2017-Sep-29 17:58N 51°15' E 004°22'0 0.0
2017-Sep-29 17:22N 51°15' E 004°22'0 0.0
2017-Sep-29 16:49N 51°15' E 004°22'0 0.0
2017-Sep-29 16:28N 51°15' E 004°22'0 0.0
2017-Sep-29 15:55N 51°15' E 004°22'0 0.0
2017-Sep-29 15:28N 51°15' E 004°22'0 0.0
2017-Sep-29 14:58N 51°15' E 004°22'0 0.0
2017-Sep-29 14:28N 51°15' E 004°22'0 0.0
2017-Sep-29 13:58N 51°15' E 004°22'0 0.0
2017-Sep-29 13:22N 51°15' E 004°22'0 0.0
2017-Sep-29 12:58N 51°15' E 004°22'0 0.0
2017-Sep-29 12:25N 51°15' E 004°22'0 0.0
2017-Sep-29 11:58N 51°15' E 004°22'1 1.6
2017-Sep-29 11:30N 51°16' E 004°21'3 5.0
2017-Sep-29 11:00N 51°18' E 004°19'3 5.6
2017-Sep-29 10:30N 51°21' E 004°18'  

Dump ship's entire track history